createdAt,value
2023-09-01T00:00:18.484Z,36.5
2023-09-01T00:01:20.277Z,36.4
2023-09-01T00:02:22.290Z,36.5
2023-09-01T00:03:24.241Z,36.4
2023-09-01T00:04:26.624Z,36.4
2023-09-01T00:05:28.389Z,36.3
2023-09-01T00:06:30.305Z,36.3
2023-09-01T00:07:32.129Z,36.3
2023-09-01T00:08:33.918Z,36.3
2023-09-01T00:09:35.689Z,36.3
2023-09-01T00:10:37.421Z,36.3
2023-09-01T00:11:39.142Z,36.3
2023-09-01T00:12:40.839Z,36.3
2023-09-01T00:13:42.825Z,36.3
2023-09-01T00:14:44.863Z,36.4
2023-09-01T00:15:46.604Z,36.4
2023-09-01T00:16:48.577Z,36.4
2023-09-01T00:17:50.941Z,36.3
2023-09-01T00:18:53.091Z,36.3
2023-09-01T00:19:54.826Z,36.3
2023-09-01T00:20:56.557Z,36.3
2023-09-01T00:21:58.378Z,36.2
2023-09-01T00:23:00.118Z,36.2
2023-09-01T00:24:01.956Z,36.2
2023-09-01T00:25:03.738Z,36.2
2023-09-01T00:26:05.452Z,36.3
2023-09-01T00:27:07.310Z,36.3
2023-09-01T00:28:09.009Z,36.3
2023-09-01T00:29:10.749Z,36.3
2023-09-01T00:30:12.674Z,36.3
2023-09-01T00:31:14.518Z,36.3
2023-09-01T00:32:16.534Z,36.3
2023-09-01T00:33:18.218Z,36.3
2023-09-01T00:34:20.089Z,36.4
2023-09-01T00:35:21.919Z,36.3
2023-09-01T00:36:23.618Z,36.4
2023-09-01T00:37:25.377Z,36.4
2023-09-01T00:38:27.139Z,36.4
2023-09-01T00:39:28.900Z,36.4
2023-09-01T00:40:30.631Z,36.3
2023-09-01T00:41:32.345Z,36.3
2023-09-01T00:42:34.099Z,36.4
2023-09-01T00:43:35.820Z,36.3
2023-09-01T00:44:37.680Z,36.3
2023-09-01T00:45:39.530Z,36.3
2023-09-01T00:46:41.720Z,36.3
2023-09-01T00:47:43.963Z,36.3
2023-09-01T00:48:48.136Z,36.3
2023-09-01T00:49:50.040Z,36.3
2023-09-01T00:50:51.970Z,36.3
2023-09-01T00:51:53.815Z,36.3
2023-09-01T00:52:55.587Z,36.3
2023-09-01T00:53:57.322Z,36.3
2023-09-01T00:54:59.040Z,36.3
2023-09-01T00:56:00.817Z,36.4
2023-09-01T00:57:02.637Z,36.3
2023-09-01T00:58:04.460Z,36.3
2023-09-01T00:59:06.316Z,36.3
2023-09-01T01:00:08.290Z,36.4
2023-09-01T01:01:10.006Z,36.3
2023-09-01T01:02:11.760Z,36.3
2023-09-01T01:03:13.946Z,36.4
2023-09-01T01:04:16.207Z,36.4
2023-09-01T01:05:18.093Z,36.4
2023-09-01T01:06:19.899Z,36.3
2023-09-01T01:07:21.733Z,36.3
2023-09-01T01:08:23.473Z,36.4
2023-09-01T01:09:25.233Z,36.4
2023-09-01T01:10:27.040Z,36.4
2023-09-01T01:11:31.951Z,36.4
2023-09-01T01:12:33.671Z,36.4
2023-09-01T01:13:35.460Z,36.5
2023-09-01T01:14:37.275Z,36.4
2023-09-01T01:15:39.022Z,36.4
2023-09-01T01:16:40.768Z,36.4
2023-09-01T01:17:42.528Z,36.5
2023-09-01T01:18:44.498Z,36.4
2023-09-01T01:19:46.244Z,36.4
2023-09-01T01:20:47.997Z,36.4
2023-09-01T01:21:49.699Z,36.4
2023-09-01T01:22:51.414Z,36.4
2023-09-01T01:23:53.238Z,36.4
2023-09-01T01:24:55.044Z,36.4
2023-09-01T01:25:56.747Z,36.4
2023-09-01T01:26:58.651Z,36.5
2023-09-01T01:28:00.444Z,36.4
2023-09-01T01:29:02.180Z,36.5
2023-09-01T01:30:03.896Z,36.5
2023-09-01T01:31:05.713Z,36.5
2023-09-01T01:32:07.531Z,36.6
2023-09-01T01:33:09.324Z,36.6
2023-09-01T01:34:11.390Z,36.5
2023-09-01T01:35:13.418Z,36.5
2023-09-01T01:36:15.392Z,36.5
2023-09-01T01:37:17.349Z,36.5
2023-09-01T01:38:19.094Z,36.6
2023-09-01T01:39:20.824Z,36.5
2023-09-01T01:40:22.609Z,36.5
2023-09-01T01:41:24.313Z,36.5
2023-09-01T01:42:26.099Z,36.5
2023-09-01T01:43:27.844Z,36.5
2023-09-01T01:44:29.533Z,36.5
2023-09-01T01:45:31.313Z,36.4
2023-09-01T01:46:33.280Z,36.4
2023-09-01T01:47:35.042Z,36.4
2023-09-01T01:48:36.974Z,36.5
2023-09-01T01:49:38.685Z,36.5
2023-09-01T01:50:40.636Z,36.5
2023-09-01T01:51:42.850Z,36.4
2023-09-01T01:52:44.626Z,36.4
2023-09-01T01:53:46.430Z,36.4
2023-09-01T01:54:48.227Z,36.5
2023-09-01T01:55:49.962Z,36.5
2023-09-01T01:56:51.760Z,36.5
2023-09-01T01:57:53.593Z,36.5
2023-09-01T01:58:55.477Z,36.5
2023-09-01T01:59:57.614Z,36.5
2023-09-01T02:00:59.486Z,36.4
2023-09-01T02:02:01.898Z,36.5
2023-09-01T02:03:03.766Z,36.5
2023-09-01T02:04:05.788Z,36.5
2023-09-01T02:05:07.595Z,36.5
2023-09-01T02:06:09.519Z,36.5
2023-09-01T02:07:11.249Z,36.5
2023-09-01T02:08:13.836Z,36.6
2023-09-01T02:09:16.637Z,36.6
2023-09-01T02:10:18.395Z,36.5
2023-09-01T02:11:20.313Z,36.5
2023-09-01T02:12:22.087Z,36.5
2023-09-01T02:13:23.900Z,36.6
2023-09-01T02:14:25.652Z,36.6
2023-09-01T02:15:27.430Z,36.6
2023-09-01T02:16:29.156Z,36.6
2023-09-01T02:17:30.901Z,36.6
2023-09-01T02:18:33.081Z,36.6
2023-09-01T02:19:35.143Z,36.6
2023-09-01T02:20:36.895Z,36.6
2023-09-01T02:21:38.597Z,36.6
2023-09-01T02:22:40.298Z,36.5
2023-09-01T02:23:42.019Z,36.5
2023-09-01T02:24:43.885Z,36.5
2023-09-01T02:25:45.850Z,36.5
2023-09-01T02:26:47.807Z,36.5
2023-09-01T02:27:52.201Z,36.6
2023-09-01T02:28:53.958Z,36.5
2023-09-01T02:29:55.756Z,36.6
2023-09-01T02:30:57.649Z,36.6
2023-09-01T02:31:59.563Z,36.5
2023-09-01T02:33:01.464Z,36.6
2023-09-01T02:34:03.423Z,36.6
2023-09-01T02:35:05.178Z,36.6
2023-09-01T02:36:06.913Z,36.6
2023-09-01T02:37:08.645Z,36.6
2023-09-01T02:38:10.384Z,36.6
2023-09-01T02:39:12.103Z,36.6
2023-09-01T02:40:13.989Z,36.6
2023-09-01T02:41:15.809Z,36.6
2023-09-01T02:42:17.614Z,36.6
2023-09-01T02:43:19.391Z,36.6
2023-09-01T02:44:21.156Z,36.6
2023-09-01T02:45:22.843Z,36.6
2023-09-01T02:46:24.821Z,36.6
2023-09-01T02:47:26.849Z,36.6
2023-09-01T02:48:29.070Z,36.6
2023-09-01T02:49:30.836Z,36.6
2023-09-01T02:50:32.598Z,36.5
2023-09-01T02:51:37.056Z,36.6
2023-09-01T02:52:38.785Z,36.6
2023-09-01T02:53:40.579Z,36.6
2023-09-01T02:54:42.301Z,36.6
2023-09-01T02:55:44.070Z,36.6
2023-09-01T02:56:45.795Z,36.6
2023-09-01T02:57:47.578Z,36.6
2023-09-01T02:58:49.299Z,36.6
2023-09-01T02:59:51.064Z,36.6
2023-09-01T03:00:52.896Z,36.7
2023-09-01T03:01:54.930Z,36.6
2023-09-01T03:02:59.072Z,36.6
2023-09-01T03:04:01.292Z,36.6
2023-09-01T03:05:03.050Z,36.6
2023-09-01T03:06:04.788Z,36.6
2023-09-01T03:07:06.510Z,36.6
2023-09-01T03:08:08.309Z,36.6
2023-09-01T03:09:09.999Z,36.6
2023-09-01T03:10:11.698Z,36.6
2023-09-01T03:11:13.493Z,36.6
2023-09-01T03:12:15.310Z,36.6
2023-09-01T03:13:17.104Z,36.6
2023-09-01T03:14:18.782Z,36.7
2023-09-01T03:15:20.579Z,36.8
2023-09-01T03:16:22.438Z,36.8
2023-09-01T03:17:24.399Z,36.8
2023-09-01T03:18:26.426Z,36.7
2023-09-01T03:19:28.134Z,36.8
2023-09-01T03:20:29.832Z,36.8
2023-09-01T03:21:31.593Z,36.8
2023-09-01T03:22:33.650Z,36.8
2023-09-01T03:23:35.713Z,36.9
2023-09-01T03:24:37.911Z,36.9
2023-09-01T03:25:39.700Z,36.9
2023-09-01T03:26:41.435Z,37
2023-09-01T03:27:43.279Z,37
2023-09-01T03:28:45.165Z,37
2023-09-01T03:29:46.929Z,37
2023-09-01T03:30:48.723Z,37
2023-09-01T03:31:50.597Z,37
2023-09-01T03:32:52.848Z,37.1
2023-09-01T03:33:55.164Z,37
2023-09-01T03:34:56.890Z,37
2023-09-01T03:35:58.619Z,37.1
2023-09-01T03:37:00.346Z,37
2023-09-01T03:38:02.090Z,37.1
2023-09-01T03:39:03.907Z,37.1
2023-09-01T03:40:05.603Z,37.1
2023-09-01T03:41:07.330Z,37.1
2023-09-01T03:42:09.078Z,37.1
2023-09-01T03:43:10.847Z,37.2
2023-09-01T03:44:12.655Z,37.1
2023-09-01T03:45:14.379Z,37.2
2023-09-01T03:46:16.297Z,37.1
2023-09-01T03:47:18.150Z,37.3
2023-09-01T03:48:20.745Z,37.3
2023-09-01T03:49:23.351Z,37.3
2023-09-01T03:50:25.222Z,37.2
2023-09-01T03:51:26.960Z,37.3
2023-09-01T03:52:28.742Z,37.3
2023-09-01T03:53:30.490Z,37.2
2023-09-01T03:54:35.180Z,37.3
2023-09-01T03:55:36.935Z,37.3
2023-09-01T03:56:41.296Z,37.3
2023-09-01T03:57:42.996Z,37.3
2023-09-01T03:58:44.734Z,37.4
2023-09-01T03:59:47.533Z,37.4
2023-09-01T04:00:49.281Z,37.4
2023-09-01T04:01:53.669Z,37.6
2023-09-01T04:02:55.698Z,37.7
2023-09-01T04:03:57.600Z,37.8
2023-09-01T04:04:59.812Z,37.8
2023-09-01T04:06:01.610Z,37.8
2023-09-01T04:07:03.333Z,37.6
2023-09-01T04:08:05.063Z,37.5
2023-09-01T04:09:06.921Z,37.6
2023-09-01T04:10:08.671Z,37.5
2023-09-01T04:11:10.555Z,37.7
2023-09-01T04:12:12.341Z,37.8
2023-09-01T04:13:14.134Z,37.7
2023-09-01T04:14:15.919Z,37.5
2023-09-01T04:15:17.697Z,37.5
2023-09-01T04:16:19.583Z,37.6
2023-09-01T04:17:21.708Z,37.7
2023-09-01T04:18:23.473Z,37.8
2023-09-01T04:19:25.311Z,37.8
2023-09-01T04:20:27.186Z,37.8
2023-09-01T04:21:28.899Z,37.8
2023-09-01T04:22:30.649Z,37.9
2023-09-01T04:23:32.381Z,38
2023-09-01T04:24:34.099Z,37.9
2023-09-01T04:25:35.821Z,37.9
2023-09-01T04:26:37.552Z,37.8
2023-09-01T04:27:39.296Z,37.7
2023-09-01T04:28:41.164Z,37.7
2023-09-01T04:29:59.620Z,37.7
2023-09-01T04:31:12.941Z,37.6
2023-09-01T04:32:14.884Z,37.6
2023-09-01T04:33:16.796Z,37.7
2023-09-01T04:34:18.934Z,37.8
2023-09-01T04:35:20.638Z,37.9
2023-09-01T04:36:41.590Z,37.9
2023-09-01T04:37:52.337Z,37.6
2023-09-01T04:38:54.066Z,37.5
2023-09-01T04:39:56.119Z,37.3
2023-09-01T04:40:58.219Z,37.3
2023-09-01T04:42:00.170Z,37.2
2023-09-01T04:43:01.991Z,37.3
2023-09-01T04:44:03.748Z,37.3
2023-09-01T04:45:05.502Z,37.3
2023-09-01T04:46:07.425Z,37.3
2023-09-01T04:47:09.434Z,37.3
2023-09-01T04:48:11.151Z,37.2
2023-09-01T04:49:13.105Z,37.2
2023-09-01T04:50:14.962Z,37.2
2023-09-01T04:51:16.674Z,37.3
2023-09-01T04:52:30.125Z,37.4
2023-09-01T04:53:45.196Z,37.3
2023-09-01T04:54:46.981Z,37.4
2023-09-01T04:55:48.685Z,37.4
2023-09-01T04:56:50.453Z,37.3
2023-09-01T04:57:52.189Z,37.3
2023-09-01T04:58:53.976Z,37.3
2023-09-01T04:59:55.805Z,37.4
2023-09-01T05:00:57.602Z,37.5
2023-09-01T05:01:59.688Z,37.4
2023-09-01T05:03:01.700Z,37.3
2023-09-01T05:04:04.019Z,37.4
2023-09-01T05:05:05.789Z,37.4
2023-09-01T05:06:07.544Z,37.4
2023-09-01T05:07:09.314Z,37.4
2023-09-01T05:08:11.014Z,37.4
2023-09-01T05:09:13.800Z,37.4
2023-09-01T05:10:15.575Z,37.4
2023-09-01T05:11:17.419Z,37.4
2023-09-01T05:12:19.161Z,37.4
2023-09-01T05:13:20.894Z,37.3
2023-09-01T05:14:22.651Z,37.2
2023-09-01T05:15:24.399Z,37.1
2023-09-01T05:16:26.462Z,37.1
2023-09-01T05:17:28.490Z,36.9
2023-09-01T05:18:30.621Z,36.7
2023-09-01T05:19:32.430Z,36.4
2023-09-01T05:20:34.314Z,36.3
2023-09-01T05:21:36.087Z,37
2023-09-01T05:22:37.973Z,37.2
2023-09-01T05:23:40.173Z,37.2
2023-09-01T05:24:41.870Z,37.6
2023-09-01T05:25:43.617Z,37.6
2023-09-01T05:26:45.327Z,37.6
2023-09-01T05:27:47.169Z,37.6
2023-09-01T05:28:48.922Z,37.7
2023-09-01T05:29:50.661Z,37.4
2023-09-01T05:30:52.438Z,37.3
2023-09-01T05:31:54.597Z,37.2
2023-09-01T05:32:56.529Z,37.2
2023-09-01T05:33:58.618Z,37.1
2023-09-01T05:35:00.418Z,36.8
2023-09-01T05:36:02.216Z,36.7
2023-09-01T05:37:03.982Z,36.7
2023-09-01T05:38:05.859Z,36.5
2023-09-01T05:39:07.563Z,36.4
2023-09-01T05:40:09.269Z,36.2
2023-09-01T05:41:11.035Z,36.2
2023-09-01T05:42:12.732Z,36.1
2023-09-01T05:43:14.589Z,36
2023-09-01T05:44:16.342Z,35.9
2023-09-01T05:45:18.051Z,35.8
2023-09-01T05:46:19.979Z,35.8
2023-09-01T05:47:22.052Z,35.6
2023-09-01T05:48:24.001Z,35.8
2023-09-01T05:49:25.764Z,35.6
2023-09-01T05:50:27.580Z,35.3
2023-09-01T05:51:29.643Z,35.4
2023-09-01T05:52:31.368Z,35.3
2023-09-01T05:53:33.109Z,35.6
2023-09-01T05:54:34.855Z,35.5
2023-09-01T05:55:36.704Z,35.4
2023-09-01T05:56:38.422Z,35.2
2023-09-01T05:57:40.406Z,35
2023-09-01T05:58:42.159Z,34.9
2023-09-01T05:59:43.911Z,34.6
2023-09-01T06:00:48.627Z,34.7
2023-09-01T06:01:50.700Z,34.8
2023-09-01T06:02:52.874Z,34.5
2023-09-01T06:03:55.076Z,34.4
2023-09-01T06:04:56.995Z,34.2
2023-09-01T06:05:58.718Z,34.2
2023-09-01T06:07:00.587Z,34.1
2023-09-01T06:08:02.371Z,34.2
2023-09-01T06:09:04.117Z,34.1
2023-09-01T06:10:05.834Z,34.2
2023-09-01T06:11:07.637Z,34.2
2023-09-01T06:12:09.384Z,34.2
2023-09-01T06:13:11.209Z,34.1
2023-09-01T06:14:12.928Z,34.2
2023-09-01T06:15:14.660Z,34.3
2023-09-01T06:16:16.591Z,34.3
2023-09-01T06:17:24.476Z,34.1
2023-09-01T06:18:48.759Z,34.2
2023-09-01T06:19:50.527Z,34.2
2023-09-01T06:20:52.254Z,34.1
2023-09-01T06:21:53.967Z,34.4
2023-09-01T06:22:55.818Z,34
2023-09-01T06:23:57.612Z,34.1
2023-09-01T06:24:59.425Z,33.9
2023-09-01T06:26:01.123Z,33.9
2023-09-01T06:27:02.864Z,34
2023-09-01T06:28:04.658Z,34.2
2023-09-01T06:29:06.357Z,34
2023-09-01T06:30:08.288Z,33.9
2023-09-01T06:31:10.347Z,33.8
2023-09-01T06:32:12.264Z,34.1
2023-09-01T06:33:14.265Z,33.9
2023-09-01T06:34:16.233Z,33.9
2023-09-01T06:35:17.983Z,33.9
2023-09-01T06:36:19.879Z,34
2023-09-01T06:37:21.677Z,33.9
2023-09-01T06:38:23.483Z,34
2023-09-01T06:39:25.279Z,34
2023-09-01T06:40:26.983Z,34
2023-09-01T06:41:28.742Z,34
2023-09-01T06:42:30.456Z,34.9
2023-09-01T06:43:32.196Z,34.5
2023-09-01T06:44:33.924Z,34.2
2023-09-01T06:45:35.929Z,34.1
2023-09-01T06:46:40.717Z,34.1
2023-09-01T06:47:42.602Z,34.1
2023-09-01T06:48:44.669Z,34.1
2023-09-01T06:49:46.530Z,34.1
2023-09-01T06:50:48.441Z,34.2
2023-09-01T06:51:50.223Z,34.4
2023-09-01T06:52:51.979Z,34.4
2023-09-01T06:53:53.860Z,34.3
2023-09-01T06:54:55.645Z,34.3
2023-09-01T06:55:57.386Z,34.2
2023-09-01T06:56:59.162Z,34.2
2023-09-01T06:58:01.118Z,34.4
2023-09-01T06:59:03.044Z,34.4
2023-09-01T07:00:04.843Z,34.3
2023-09-01T07:01:06.729Z,34.3
2023-09-01T07:02:08.683Z,34.2
2023-09-01T07:03:10.578Z,34.2
2023-09-01T07:04:12.742Z,34.2
2023-09-01T07:05:14.855Z,34.2
2023-09-01T07:06:16.566Z,34.2
2023-09-01T07:07:18.343Z,34.2
2023-09-01T07:08:20.065Z,34.2
2023-09-01T07:09:21.906Z,34.2
2023-09-01T07:10:23.679Z,34.2
2023-09-01T07:11:25.383Z,34.1
2023-09-01T07:12:27.111Z,34.1
2023-09-01T07:13:28.888Z,34.1
2023-09-01T07:14:30.610Z,34.1
2023-09-01T07:15:32.375Z,34.2
2023-09-01T07:16:34.111Z,34.1
2023-09-01T07:17:36.008Z,34
2023-09-01T07:18:37.861Z,34.2
2023-09-01T07:19:42.011Z,34.3
2023-09-01T07:20:43.956Z,34.2
2023-09-01T07:21:45.655Z,34.2
2023-09-01T07:22:47.441Z,35
2023-09-01T07:23:49.223Z,34.6
2023-09-01T07:24:51.039Z,34.7
2023-09-01T07:25:52.796Z,34.9
2023-09-01T07:26:54.503Z,35
2023-09-01T07:27:56.220Z,34.9
2023-09-01T07:28:58.044Z,34.9
2023-09-01T07:29:59.772Z,34.9
2023-09-01T07:31:01.613Z,34.8
2023-09-01T07:32:03.720Z,34.7
2023-09-01T07:33:05.671Z,34.6
2023-09-01T07:34:07.625Z,34.6
2023-09-01T07:35:09.323Z,34.6
2023-09-01T07:36:11.079Z,34.5
2023-09-01T07:37:13.005Z,34.4
2023-09-01T07:38:15.298Z,34.3
2023-09-01T07:39:18.442Z,34.2
2023-09-01T07:40:20.228Z,34.1
2023-09-01T07:41:21.969Z,34.3
2023-09-01T07:42:23.794Z,34.1
2023-09-01T07:43:25.513Z,34.1
2023-09-01T07:44:27.307Z,33.8
2023-09-01T07:45:29.080Z,34
2023-09-01T07:46:31.254Z,33.9
2023-09-01T07:47:33.049Z,33.8
2023-09-01T07:48:35.136Z,33.8
2023-09-01T07:49:37.481Z,33.8
2023-09-01T07:50:39.224Z,33.7
2023-09-01T07:51:41.082Z,33.8
2023-09-01T07:52:42.796Z,33.9
2023-09-01T07:53:44.597Z,33.8
2023-09-01T07:54:46.358Z,33.4
2023-09-01T07:55:48.158Z,33.3
2023-09-01T07:56:49.878Z,33.4
2023-09-01T07:57:51.730Z,33.5
2023-09-01T07:58:53.478Z,33.5
2023-09-01T07:59:55.240Z,33.3
2023-09-01T08:00:57.032Z,33.3
2023-09-01T08:01:58.945Z,33.2
2023-09-01T08:03:01.019Z,33.3
2023-09-01T08:04:03.229Z,33.2
2023-09-01T08:05:05.238Z,33.3
2023-09-01T08:06:09.234Z,33.1
2023-09-01T08:07:11.037Z,33
2023-09-01T08:08:13.519Z,33.3
2023-09-01T08:09:16.954Z,33
2023-09-01T08:10:18.789Z,32.9
2023-09-01T08:11:20.785Z,33
2023-09-01T08:12:22.501Z,32.7
2023-09-01T08:13:24.193Z,32.8
2023-09-01T08:14:26.067Z,33
2023-09-01T08:15:27.949Z,33
2023-09-01T08:16:30.011Z,32.9
2023-09-01T08:17:31.944Z,32.6
2023-09-01T08:18:33.893Z,32.7
2023-09-01T08:19:35.621Z,32.8
2023-09-01T08:20:37.504Z,33.1
2023-09-01T08:21:39.247Z,32.8
2023-09-01T08:22:41.074Z,32.9
2023-09-01T08:23:42.880Z,32.9
2023-09-01T08:24:44.710Z,32.9
2023-09-01T08:25:46.549Z,32.9
2023-09-01T08:26:51.192Z,32.8
2023-09-01T08:27:53.053Z,32.7
2023-09-01T08:28:55.003Z,32.7
2023-09-01T08:29:56.748Z,32.5
2023-09-01T08:30:58.773Z,32.6
2023-09-01T08:32:00.920Z,32.7
2023-09-01T08:33:02.778Z,32.8
2023-09-01T08:34:04.890Z,32.7
2023-09-01T08:35:06.713Z,32.7
2023-09-01T08:36:08.481Z,32.7
2023-09-01T08:37:10.216Z,32.6
2023-09-01T08:38:11.955Z,32.7
2023-09-01T08:39:14.081Z,32.5
2023-09-01T08:40:15.854Z,32.4
2023-09-01T08:41:17.607Z,32.4
2023-09-01T08:42:19.472Z,32.6
2023-09-01T08:43:21.173Z,32.5
2023-09-01T08:44:22.989Z,32.4
2023-09-01T08:45:24.769Z,32.2
2023-09-01T08:46:26.643Z,32.2
2023-09-01T08:47:28.662Z,32.5
2023-09-01T08:48:30.486Z,32.5
2023-09-01T08:49:32.182Z,32.4
2023-09-01T08:50:34.034Z,32.2
2023-09-01T08:51:35.722Z,32.2
2023-09-01T08:52:37.445Z,32.1
2023-09-01T08:53:39.224Z,32.3
2023-09-01T08:54:40.993Z,32.3
2023-09-01T08:55:42.762Z,32.3
2023-09-01T08:56:44.459Z,32.2
2023-09-01T08:57:46.300Z,32.1
2023-09-01T08:58:48.029Z,32
2023-09-01T08:59:49.748Z,32.2
2023-09-01T09:00:51.649Z,32.3
2023-09-01T09:01:53.437Z,32.1
2023-09-01T09:03:08.783Z,31.9
2023-09-01T09:04:11.755Z,31.8
2023-09-01T09:05:13.922Z,31.8
2023-09-01T09:06:15.655Z,31.9
2023-09-01T09:07:17.630Z,31.9
2023-09-01T09:08:19.503Z,31.8
2023-09-01T09:09:21.293Z,31.7
2023-09-01T09:10:23.087Z,31.8
2023-09-01T09:11:24.850Z,31.8
2023-09-01T09:12:26.630Z,31.9
2023-09-01T09:13:28.503Z,32.1
2023-09-01T09:14:35.094Z,31.9
2023-09-01T09:16:00.370Z,31.8
2023-09-01T09:17:02.209Z,31.7
2023-09-01T09:18:04.366Z,31.8
2023-09-01T09:19:07.309Z,31.7
2023-09-01T09:20:09.767Z,31.6
2023-09-01T09:21:11.602Z,31.7
2023-09-01T09:22:13.368Z,31.6
2023-09-01T09:23:15.239Z,31.6
2023-09-01T09:24:23.554Z,31.7
2023-09-01T09:25:25.361Z,31.7
2023-09-01T09:26:27.126Z,31.4
2023-09-01T09:27:28.923Z,31.4
2023-09-01T09:28:30.990Z,31.3
2023-09-01T09:29:33.474Z,31.4
2023-09-01T09:30:35.218Z,31.4
2023-09-01T09:31:37.120Z,31.5
2023-09-01T09:32:39.184Z,31.4
2023-09-01T09:33:40.996Z,31.3
2023-09-01T09:34:42.714Z,31.3
2023-09-01T09:35:44.405Z,31.4
2023-09-01T09:36:46.174Z,31.3
2023-09-01T09:37:48.003Z,31.2
2023-09-01T09:38:49.795Z,31.2
2023-09-01T09:39:51.566Z,31.1
2023-09-01T09:40:53.336Z,31.2
2023-09-01T09:41:55.084Z,31.3
2023-09-01T09:42:56.964Z,31.2
2023-09-01T09:43:58.796Z,31.1
2023-09-01T09:45:01.289Z,31.1
2023-09-01T09:46:03.046Z,31.1
2023-09-01T09:47:05.179Z,31.3
2023-09-01T09:48:07.260Z,31.3
2023-09-01T09:49:09.745Z,31.2
2023-09-01T09:50:11.663Z,31
2023-09-01T09:51:13.387Z,31.1
2023-09-01T09:52:15.192Z,31.2
2023-09-01T09:53:16.953Z,31.2
2023-09-01T09:54:18.678Z,31.1
2023-09-01T09:55:20.467Z,31
2023-09-01T09:56:22.371Z,31.2
2023-09-01T09:57:24.088Z,31.2
2023-09-01T09:58:28.365Z,31
2023-09-01T09:59:30.086Z,31.1
2023-09-01T10:00:31.862Z,31
2023-09-01T10:01:34.118Z,31
2023-09-01T10:02:40.763Z,30.8
2023-09-01T10:03:42.947Z,30.8
2023-09-01T10:04:44.838Z,30.9
2023-09-01T10:05:46.574Z,31.1
2023-09-01T10:06:48.350Z,31.1
2023-09-01T10:07:50.132Z,30.9
2023-09-01T10:08:51.902Z,31
2023-09-01T10:09:56.546Z,31.1
2023-09-01T10:10:58.307Z,31.1
2023-09-01T10:12:00.161Z,31
2023-09-01T10:13:01.943Z,31
2023-09-01T10:14:03.692Z,31
2023-09-01T10:15:05.472Z,30.8
2023-09-01T10:16:07.328Z,30.9
2023-09-01T10:17:09.443Z,30.8
2023-09-01T10:18:11.425Z,30.8
2023-09-01T10:19:13.908Z,30.7
2023-09-01T10:20:15.711Z,30.6
2023-09-01T10:21:17.456Z,30.7
2023-09-01T10:22:19.194Z,30.8
2023-09-01T10:23:21.002Z,30.8
2023-09-01T10:24:22.727Z,30.7
2023-09-01T10:25:24.493Z,30.8
2023-09-01T10:26:26.857Z,31
2023-09-01T10:27:29.103Z,30.7
2023-09-01T10:28:33.403Z,30.8
2023-09-01T10:29:35.233Z,31
2023-09-01T10:30:37.352Z,30.7
2023-09-01T10:31:39.200Z,30.6
2023-09-01T10:32:41.070Z,30.8
2023-09-01T10:33:43.176Z,30.6
2023-09-01T10:34:45.290Z,30.7
2023-09-01T10:35:47.025Z,30.6
2023-09-01T10:36:48.827Z,30.6
2023-09-01T10:37:50.627Z,30.5
2023-09-01T10:38:52.354Z,30.7
2023-09-01T10:39:54.104Z,30.7
2023-09-01T10:40:55.849Z,30.7
2023-09-01T10:41:57.587Z,30.5
2023-09-01T10:42:59.470Z,30.6
2023-09-01T10:44:01.174Z,30.4
2023-09-01T10:45:02.961Z,30.4
2023-09-01T10:46:04.761Z,30.9
2023-09-01T10:47:06.726Z,30.8
2023-09-01T10:48:08.532Z,30.8
2023-09-01T10:49:10.477Z,30.6
2023-09-01T10:50:12.192Z,30.4
2023-09-01T10:51:13.960Z,30.4
2023-09-01T10:52:15.780Z,30.6
2023-09-01T10:53:17.499Z,30.5
2023-09-01T10:54:19.287Z,30.5
2023-09-01T10:55:21.238Z,30.5
2023-09-01T10:56:23.185Z,30.4
2023-09-01T10:57:24.954Z,30.4
2023-09-01T10:58:26.895Z,30.3
2023-09-01T10:59:28.616Z,30.4
2023-09-01T11:00:30.525Z,30.4
2023-09-01T11:01:32.770Z,30.4
2023-09-01T11:02:34.776Z,30.2
2023-09-01T11:03:36.846Z,30.4
2023-09-01T11:04:38.547Z,30.5
2023-09-01T11:05:40.336Z,30.6
2023-09-01T11:06:42.072Z,30.5
2023-09-01T11:07:43.776Z,30.3
2023-09-01T11:08:45.495Z,30.5
2023-09-01T11:09:47.287Z,30.6
2023-09-01T11:10:49.006Z,30.7
2023-09-01T11:11:50.709Z,30.6
2023-09-01T11:12:52.639Z,30.5
2023-09-01T11:13:54.414Z,30.5
2023-09-01T11:14:56.130Z,30.7
2023-09-01T11:15:58.046Z,31
2023-09-01T11:16:59.834Z,31.1
2023-09-01T11:18:01.855Z,30.6
2023-09-01T11:19:03.797Z,30.6
2023-09-01T11:20:05.895Z,30.5
2023-09-01T11:21:10.553Z,30.6
2023-09-01T11:22:12.317Z,30.6
2023-09-01T11:23:14.024Z,30.5
2023-09-01T11:24:15.748Z,30.4
2023-09-01T11:25:17.506Z,30.4
2023-09-01T11:26:19.299Z,30.6
2023-09-01T11:27:21.054Z,30.6
2023-09-01T11:28:22.822Z,30.4
2023-09-01T11:29:24.566Z,30.2
2023-09-01T11:30:26.291Z,30.3
2023-09-01T11:31:28.011Z,30.3
2023-09-01T11:32:30.122Z,30.3
2023-09-01T11:33:32.615Z,30.4
2023-09-01T11:34:35.057Z,30.3
2023-09-01T11:35:36.801Z,30.2
2023-09-01T11:36:38.622Z,30.2
2023-09-01T11:37:40.348Z,30.1
2023-09-01T11:38:42.267Z,30.4
2023-09-01T11:39:44.000Z,30.4
2023-09-01T11:40:45.982Z,30.2
2023-09-01T11:41:48.172Z,30
2023-09-01T11:42:49.924Z,30
2023-09-01T11:43:51.744Z,30
2023-09-01T11:44:53.493Z,30.1
2023-09-01T11:45:55.435Z,30
2023-09-01T11:46:57.323Z,30
2023-09-01T11:47:59.071Z,30
2023-09-01T11:49:00.831Z,30.1
2023-09-01T11:50:02.548Z,30.2
2023-09-01T11:51:04.285Z,30.2
2023-09-01T11:52:06.063Z,30.1
2023-09-01T11:53:07.753Z,30
2023-09-01T11:54:09.507Z,30
2023-09-01T11:55:11.824Z,30.1
2023-09-01T11:56:13.714Z,30.2
2023-09-01T11:57:15.472Z,30.1
2023-09-01T11:58:17.271Z,30.1
2023-09-01T11:59:18.986Z,30.1
2023-09-01T12:00:20.965Z,30.1
2023-09-01T12:01:22.950Z,30.3
2023-09-01T12:02:24.973Z,30.1
2023-09-01T12:03:27.144Z,30.1
2023-09-01T12:04:28.947Z,30
2023-09-01T12:05:30.721Z,30.1
2023-09-01T12:06:32.439Z,30.2
2023-09-01T12:07:34.158Z,30.2
2023-09-01T12:08:35.863Z,30.1
2023-09-01T12:09:37.571Z,29.9
2023-09-01T12:10:39.399Z,30
2023-09-01T12:11:41.135Z,30.1
2023-09-01T12:12:42.929Z,30.2
2023-09-01T12:13:44.741Z,30.1
2023-09-01T12:14:46.648Z,30
2023-09-01T12:15:48.468Z,29.9
2023-09-01T12:16:53.832Z,30.1
2023-09-01T12:17:56.592Z,30.2
2023-09-01T12:18:58.681Z,30.1
2023-09-01T12:20:00.675Z,29.9
2023-09-01T12:21:02.518Z,29.9
2023-09-01T12:22:04.287Z,29.9
2023-09-01T12:23:06.012Z,30.1
2023-09-01T12:24:07.716Z,29.9
2023-09-01T12:25:09.467Z,29.9
2023-09-01T12:26:11.232Z,29.9
2023-09-01T12:27:13.010Z,29.9
2023-09-01T12:28:15.025Z,29.9
2023-09-01T12:29:16.815Z,30
2023-09-01T12:30:18.744Z,29.8
2023-09-01T12:31:20.783Z,29.8
2023-09-01T12:32:22.599Z,30.1
2023-09-01T12:33:24.405Z,30.1
2023-09-01T12:34:26.657Z,30
2023-09-01T12:35:28.679Z,29.7
2023-09-01T12:36:30.700Z,29.8
2023-09-01T12:37:32.469Z,29.9
2023-09-01T12:38:34.522Z,30
2023-09-01T12:39:36.379Z,30
2023-09-01T12:40:38.170Z,29.9
2023-09-01T12:41:39.927Z,29.8
2023-09-01T12:42:41.737Z,29.8
2023-09-01T12:43:43.699Z,30
2023-09-01T12:44:45.528Z,30
2023-09-01T12:45:47.327Z,29.8
2023-09-01T12:46:49.375Z,29.8
2023-09-01T12:47:51.159Z,29.9
2023-09-01T12:48:52.959Z,30
2023-09-01T12:49:57.670Z,30
2023-09-01T12:50:59.544Z,30
2023-09-01T12:52:04.211Z,29.8
2023-09-01T12:53:05.977Z,29.7
2023-09-01T12:54:07.720Z,29.8
2023-09-01T12:55:09.423Z,29.9
2023-09-01T12:56:11.291Z,29.9
2023-09-01T12:57:13.329Z,29.7
2023-09-01T12:58:15.112Z,29.7
2023-09-01T12:59:16.861Z,29.7
2023-09-01T13:00:18.548Z,29.8
2023-09-01T13:01:20.469Z,29.8
2023-09-01T13:02:22.454Z,29.7
2023-09-01T13:03:24.512Z,29.5
2023-09-01T13:04:26.613Z,29.6
2023-09-01T13:05:28.408Z,29.7
2023-09-01T13:06:30.633Z,29.7
2023-09-01T13:07:32.452Z,29.6
2023-09-01T13:08:34.198Z,29.6
2023-09-01T13:09:35.917Z,29.6
2023-09-01T13:10:37.724Z,29.6
2023-09-01T13:11:39.660Z,29.7
2023-09-01T13:12:42.557Z,29.5
2023-09-01T13:13:44.333Z,29.4
2023-09-01T13:14:46.084Z,29.3
2023-09-01T13:15:50.900Z,29.4
2023-09-01T13:16:55.706Z,29.6
2023-09-01T13:17:57.533Z,29.6
2023-09-01T13:18:59.520Z,29.4
2023-09-01T13:20:01.289Z,29.5
2023-09-01T13:21:03.046Z,29.5
2023-09-01T13:22:04.933Z,29.5
2023-09-01T13:23:06.774Z,29.5
2023-09-01T13:24:08.517Z,29.4
2023-09-01T13:25:10.255Z,29.5
2023-09-01T13:26:14.847Z,29.4
2023-09-01T13:27:16.644Z,29.4
2023-09-01T13:28:18.538Z,29.5
2023-09-01T13:29:20.266Z,29.5
2023-09-01T13:30:21.986Z,29.5
2023-09-01T13:31:23.782Z,29.3
2023-09-01T13:32:25.854Z,29.4
2023-09-01T13:33:27.759Z,29.4
2023-09-01T13:34:29.583Z,29.5
2023-09-01T13:35:31.325Z,29.5
2023-09-01T13:36:33.658Z,29.4
2023-09-01T13:37:36.130Z,29.3
2023-09-01T13:38:38.241Z,29.2
2023-09-01T13:39:39.973Z,29.2
2023-09-01T13:40:41.753Z,29.3
2023-09-01T13:41:43.462Z,29.3
2023-09-01T13:42:45.259Z,29.1
2023-09-01T13:43:47.212Z,29
2023-09-01T13:44:48.928Z,29.1
2023-09-01T13:45:50.632Z,29.2
2023-09-01T13:46:52.571Z,29.2
2023-09-01T13:47:54.770Z,29.1
2023-09-01T13:48:56.647Z,29
2023-09-01T13:49:58.407Z,29.1
2023-09-01T13:51:00.149Z,29.4